• Join FlightAware (Why Join?)
  • Login
  • US Flag 
03:42AM EDT


 

Airport Tracker/Info


-or-


 

Live Flight TrackerFlight Track Log ✈ AFR702 ✈ 09-May-2013 ✈ LFPG / CDG - DIAP / ABJ

Flight Track Log - Related Links

Times and Time Zones

All times are in EDT time to prevent confusion due to time zone crossing. See the AFR702 flight status page for this flight to view local times or setup timezone preferences in your user account.

Time Position Orientation Groundspeed Altitude Reporting Facility
EDT Latitude Longitude Course Direction KTS MPH feet Rate Location/Type
08:05AM 48.9963 2.5650 264° West 176 203 600  Level FlightAware ADS-B
08:06AM 48.9949 2.5391 265° West 176 203 1,500 2,640 Climbing FlightAware ADS-B
08:06AM 48.9939 2.5201 265° West 178 205 2,200 2,340 Climbing FlightAware ADS-B
08:06AM 48.9924 2.4983 264° West 183 211 2,800 2,040 Climbing FlightAware ADS-B
08:07AM 48.9910 2.4764 264° West 181 208 3,400 1,860 Climbing FlightAware ADS-B
08:07AM 48.9898 2.4521 266° West 194 223 3,900 1,260 Climbing FlightAware ADS-B
08:07AM 48.9885 2.4304 265° West 215 247 4,100 540 Climbing FlightAware ADS-B
08:07AM 48.9872 2.4050 266° West 237 273 4,200 1,080 Climbing FlightAware ADS-B
08:08AM 48.9861 2.3859 265° West 247 284 4,600 1,920 Climbing FlightAware ADS-B
08:08AM 48.9845 2.3566 265° West 260 299 5,100 2,520 Climbing FlightAware ADS-B
08:08AM 48.9829 2.3282 265° West 254 292 6,000 3,480 Climbing FlightAware ADS-B
08:08AM 48.9815 2.3019 265° West 246 283 6,900 3,780 Climbing FlightAware ADS-B
08:08AM 48.9809 2.2938 264° West 243 280 7,200 3,780 Climbing FlightAware ADS-B
08:09AM 48.9796 2.2832 259° West 239 275 7,600 3,240 Climbing FlightAware ADS-B
08:09AM 48.9781 2.2758 253° West 239 275 7,800 1,980 Climbing FlightAware ADS-B
08:09AM 48.9715 2.2493 249° West 247 284 8,300 2,220 Climbing FlightAware ADS-B
08:09AM 48.9667 2.2291 250° West 248 285 8,900 2,700 Climbing FlightAware ADS-B
08:09AM 48.9621 2.2090 251° West 250 288 9,400 2,340 Climbing FlightAware ADS-B
08:10AM 48.9527 2.1661 252° West 254 292 10,400 2,520 Climbing FlightAware ADS-B
08:10AM 48.9490 2.1537 246° West 254 292 10,800 2,400 Climbing FlightAware ADS-B
08:10AM 48.9444 2.1425 238° Southwest 259 298 11,000 960 Climbing FlightAware ADS-B
08:10AM 48.9411 2.1358 233° Southwest 266 306 11,000 600 Level FlightAware ADS-B
08:10AM 48.9358 2.1270 228° Southwest 275 316 11,100 600 Climbing FlightAware ADS-B
08:10AM 48.9324 2.1225 221° Southwest 280 322 11,100 660 Level FlightAware ADS-B
08:10AM 48.9273 2.1168 216° Southwest 286 329 11,200 1,200 Climbing FlightAware ADS-B
08:10AM 48.9152 2.1080 206° Southwest 300 345 11,400 1,200 Climbing FlightAware ADS-B
08:11AM 48.8717 2.0898 195° South 336 387 12,000 540 Climbing FlightAware ADS-B
08:12AM 48.8208 2.0676 196° South 345 397 12,000  Level FlightAware ADS-B
08:12AM 48.7738 2.0467 196° South 344 396 12,000 720 Level FlightAware ADS-B
08:13AM 48.7270 2.0261 196° South 348 400 12,800 2,160 Climbing FlightAware ADS-B
08:13AM 48.6844 2.0073 196° South 354 407 14,100 2,640 Climbing FlightAware ADS-B
08:13AM 48.6696 2.0031 191° South 360 414 14,400 2,400 Climbing FlightAware ADS-B
08:13AM 48.6597 2.0022 183° South 365 420 14,700 2,460 Climbing FlightAware ADS-B
08:13AM 48.6496 2.0028 178° South 369 425 14,900 2,400 Climbing FlightAware ADS-B
08:14AM 48.5962 2.0126 173° South 380 437 16,200 2,340 Climbing FlightAware ADS-B
08:14AM 48.5390 2.0233 173° South 389 448 17,400 2,220 Climbing FlightAware ADS-B
08:15AM 48.4730 2.0355 173° South 394 453 18,800 2,400 Climbing FlightAware ADS-B
08:16AM 48.4125 2.0466 173° South 400 460 20,200 2,160 Climbing FlightAware ADS-B
08:16AM 48.3524 2.0574 173° South 411 473 21,200 1,680 Climbing FlightAware ADS-B
08:17AM 48.2944 2.0675 173° South 422 486 22,000 1,680 Climbing FlightAware ADS-B
08:17AM 48.2373 2.0777 173° South 431 496 22,900 2,100 Climbing FlightAware ADS-B
08:18AM 48.1781 2.0958 168° South 436 502 24,100 2,100 Climbing FlightAware ADS-B
08:18AM 48.1184 2.1160 167° South 440 506 25,000 1,860 Climbing FlightAware ADS-B
08:19AM 48.0579 2.1353 168° South 440 506 26,000 1,920 Climbing FlightAware ADS-B
08:19AM 47.9946 2.1569 167° South 443 510 27,000 1,800 Climbing FlightAware ADS-B
08:20AM 47.9240 2.1820 167° South 444 511 28,100 1,560 Climbing FlightAware
08:21AM 47.8320 2.2130 167° South 450 518 29,200 1,500 Climbing FlightAware
08:21AM 47.7530 2.2390 168° South 450 518 30,300 1,560 Climbing FlightAware
08:22AM 47.6700 2.2670 167° South 451 519 31,300 1,380 Climbing FlightAware
08:23AM 47.5790 2.2980 167° South 453 521 32,300 1,200 Climbing FlightAware
08:23AM 47.4970 2.3260 167° South 458 527 33,000 480 Climbing FlightAware
08:24AM 47.4080 2.3560 167° South 467 537 33,000  Level FlightAware
08:25AM 47.3200 2.3860 167° South 467 537 33,000  Level FlightAware
08:25AM 47.2460 2.4110 167° South 468 539 33,000  Level FlightAware
08:26AM 47.1380 2.4470 167° South 468 539 33,000  Level FlightAware
08:27AM 47.0510 2.4760 167° South 468 539 33,000  Level FlightAware
08:28AM 46.9600 2.5060 167° South 463 533 33,000  Level FlightAware
08:28AM 46.8780 2.5330 167° South 445 512 33,000  Level FlightAware
08:29AM 46.7850 2.5520 172° South 433 498 33,000  Level FlightAware
08:30AM 46.7070 2.5580 177° South 432 497 33,000  Level FlightAware
08:30AM 46.6200 2.5650 177° South 436 502 33,000  Level FlightAware
08:31AM 46.5400 2.5720 177° South 439 505 33,000  Level FlightAware
08:32AM 46.4580 2.5790 177° South 440 506 33,000  Level FlightAware
08:32AM 46.3650 2.5870 177° South 442 509 33,000  Level FlightAware
08:33AM 46.2760 2.5940 177° South 447 514 33,000  Level FlightAware
08:34AM 46.1900 2.6010 177° South 452 520 33,000  Level FlightAware
08:34AM 46.1320 2.6060 177° South 452 520 33,000  Level FlightAware
08:35AM 46.0100 2.6160 177° South 451 519 33,000  Level FlightAware
08:36AM 45.9070 2.6260 176° South 451 519 33,000  Level FlightAware
08:37AM 45.8130 2.6320 177° South 451 519 33,000  Level FlightAware
08:38AM 45.7260 2.6390 177° South 451 519 33,000  Level FlightAware
08:38AM 45.6370 2.6460 177° South 452 520 33,000  Level FlightAware
08:39AM 45.5420 2.6540 177° South 452 520 33,000  Level FlightAware
08:40AM 45.4410 2.6630 176° South 453 521 33,000  Level FlightAware
08:41AM 45.3700 2.6700 176° South 453 521 33,000  Level FlightAware
08:41AM 45.2810 2.6790 176° South 453 521 33,000  Level FlightAware
08:42AM 45.1740 2.6390 195° South 454 522 33,000  Level FlightAware
08:43AM 45.0880 2.6530 173° South 458 527 33,000  Level FlightAware
08:43AM 44.9880 2.6590 178° South 459 528 33,000  Level FlightAware
08:44AM 44.9030 2.6630 178° South 458 527 33,000  Level FlightAware
08:45AM 44.8080 2.6700 177° South 462 532 33,000  Level FlightAware
08:46AM 44.7230 2.6720 179° South 461 531 33,000  Level FlightAware
08:46AM 44.6340 2.6770 178° South 468 539 33,000  Level FlightAware
08:47AM 44.5390 2.6860 176° South 475 547 33,000  Level FlightAware
08:48AM 44.4500 2.6940 176° South 480 552 33,000  Level FlightAware
08:48AM 44.3500 2.7010 177° South 482 555 33,000  Level FlightAware
08:49AM 44.2580 2.7080 177° South 484 557 33,000  Level FlightAware
08:50AM 44.1690 2.7180 175° South 484 557 33,000  Level FlightAware
08:50AM 44.0700 2.7280 176° South 483 556 33,000  Level FlightAware
08:51AM 43.9820 2.7370 176° South 483 556 33,000  Level FlightAware
08:52AM 43.8920 2.7470 175° South 483 556 33,000  Level FlightAware
08:53AM 43.7930 2.7580 175° South 482 555 33,000  Level FlightAware
08:53AM 43.7040 2.7670 176° South 483 556 33,000  Level FlightAware
08:54AM 43.6030 2.7780 175° South 482 555 33,000  Level FlightAware
08:55AM 43.5140 2.7870 176° South 482 555 33,000  Level FlightAware
08:55AM 43.4140 2.7980 175° South 483 556 33,000  Level FlightAware
08:56AM 43.3260 2.8070 176° South 482 555 33,000  Level FlightAware
08:57AM 43.2340 2.8170 175° South 480 552 33,000  Level FlightAware
08:57AM 43.1360 2.8270 176° South 479 551 33,000  Level FlightAware
08:58AM 43.0470 2.8360 176° South 478 550 33,000  Level FlightAware
08:59AM 42.9500 2.8460 176° South 479 551 33,000  Level FlightAware
08:59AM 42.8720 2.8550 175° South 479 551 33,000  Level FlightAware
09:00AM 42.7730 2.8660 175° South 485 558 33,000  Level FlightAware
09:01AM 42.6720 2.9000 166° South 500 575 33,000  Level FlightAware
09:02AM 42.5840 2.9380 162° South 503 579 33,000  Level FlightAware
09:02AM 42.4940 2.9770 162° South 506 582 33,000  Level FlightAware
09:03AM 42.4070 3.0150 162° South 501 577 33,000  Level FlightAware
09:04AM 42.3130 3.0550 163° South 498 573 33,000  Level FlightAware
09:04AM 42.2230 3.0930 163° South 487 560 33,000  Level FlightAware
09:05AM 42.1410 3.1280 162° South 482 555 33,000  Level FlightAware
09:06AM 42.0390 3.1700 163° South 482 555 33,000  Level FlightAware
09:07AM 41.9430 3.2030 166° South 476 548 33,000  Level FlightAware
09:07AM 41.8220 3.2030 180° South 467 537 33,000  Level FlightAware
09:08AM 41.7570 3.2000 182° South 468 539 33,000  Level FlightAware
09:09AM 41.6700 3.1950 182° South 470 541 33,000  Level FlightAware
09:09AM 41.5950 3.1920 182° South 475 547 33,000  Level FlightAware
09:10AM 41.5160 3.1880 182° South 475 547 33,000  Level FlightAware
09:10AM 41.4290 3.1840 182° South 474 545 33,000  Level FlightAware
09:11AM 41.3340 3.1800 182° South 473 544 33,000  Level FlightAware
09:12AM 41.2450 3.1750 182° South 473 544 33,000  Level FlightAware
09:13AM 41.1440 3.1710 182° South 477 549 33,000  Level FlightAware
09:13AM 41.0460 3.1660 182° South 480 552 33,000  Level FlightAware
09:14AM 40.9590 3.1620 182° South 479 551 33,000  Level FlightAware
09:15AM 40.8680 3.1580 182° South 484 557 33,000  Level FlightAware
09:15AM 40.7790 3.1540 182° South 485 558 33,000  Level FlightAware
09:16AM 40.6760 3.1490 182° South 486 559 33,000  Level FlightAware
09:17AM 40.5860 3.1450 182° South 485 558 33,000  Level FlightAware
09:18AM 40.4730 3.1390 182° South 486 559 33,000  Level FlightAware
09:18AM 40.3770 3.1350 182° South 487 560 33,000  Level FlightAware
09:19AM 40.2720 3.1300 182° South 489 563 33,000  Level FlightAware
09:20AM 40.1900 3.1260 182° South 489 563 33,000  Level FlightAware
09:21AM 40.0800 3.1220 182° South 490 564 33,000  Level FlightAware
09:23AM 39.8364 3.0535 192° South  Level Estimated
09:24AM 39.7125 3.0189 192° South  Level Estimated
09:24AM 39.6870 2.9400 192° South 464 534 33,000  Level FlightAware
09:26AM 39.4742 2.8815 192° South  Level Estimated
09:27AM 39.3502 2.8476 192° South  Level Estimated
09:28AM 39.2262 2.8138 192° South  Level Estimated
09:28AM 39.2250 2.7020 192° South 479 551 33,000  Level FlightAware
09:30AM 38.9913 2.6397 192° South  Level Estimated
09:30AM 38.9730 2.6350 192° South 480 552 33,000  Level FlightAware
09:30AM 38.8880 2.6120 192° South 477 549 33,000  Level FlightAware
09:31AM 38.7910 2.5860 192° South 479 551 33,000  Level FlightAware
09:32AM 38.7030 2.5630 192° South 474 545 33,000  Level FlightAware
09:32AM 38.6040 2.5370 192° South 474 545 33,000  Level FlightAware
09:33AM 38.5390 2.5200 192° South 484 557 33,000  Level FlightAware
09:34AM 38.4230 2.4900 191° South 478 550 33,000  Level FlightAware
09:35AM 38.3290 2.4650 192° South 488 562 33,000  Level FlightAware
09:35AM 38.2470 2.4410 193° South 485 558 33,000  Level FlightAware
09:36AM 38.1370 2.4040 195° South 487 560 33,000  Level FlightAware
09:37AM 38.0700 2.3810 195° South 487 560 33,000  Level FlightAware
09:37AM 37.9960 2.3560 195° South 487 560 33,000  Level FlightAware
09:38AM 37.8630 2.3160 193° South 480 552 33,000  Level FlightAware
09:39AM 37.7840 2.2910 194° South 480 552 33,000  Level FlightAware
09:39AM 37.6840 2.2580 195° South 479 551 33,000  Level FlightAware
09:40AM 37.6110 2.2340 195° South 481 554 33,000  Level FlightAware
09:41AM 37.5100 2.2010 195° South 483 556 33,000  Level FlightAware
09:42AM 37.4060 2.1670 195° South 483 556 33,000  Level FlightAware
09:42AM 37.3200 2.1390 195° South 481 554 33,000  Level FlightAware
09:43AM 37.2480 2.1160 194° South 481 554 33,000  Level FlightAware
09:44AM 37.1460 2.0820 195° South 480 552 33,000  Level FlightAware
09:44AM 37.0680 2.0450 201° Southwest 467 537 33,000  Level FlightAware
09:45AM 36.9860 2.0030 202° Southwest 467 537 33,000  Level FlightAware
09:46AM 36.9180 1.9690 202° Southwest 467 537 33,000  Level FlightAware
09:46AM 36.8500 1.9350 202° Southwest 467 537 33,000  Level FlightAware
09:47AM 36.7650 1.8920 202° Southwest 467 537 33,000  Level FlightAware
09:48AM 36.6960 1.8570 202° Southwest 467 537 33,000 300 Level FlightAware
09:48AM 36.5760 1.8420 186° South 34,000 360 Climbing FlightAware
09:49AM 36.4270 1.8040 192° South 34,000  Level FlightAware
09:50AM 36.2980 1.7690 192° South 477 549 34,000  Level FlightAware
09:51AM 36.2140 1.7460 192° South 477 549 34,000  Level FlightAware
09:52AM 36.1220 1.7220 192° South 477 549 34,000  Level FlightAware
09:52AM 36.0030 1.6890 193° South 34,000  Level FlightAware
09:54AM 35.8450 1.6470 192° South 34,000  Level FlightAware
09:54AM 35.7450 1.6200 192° South 481 554 34,000  Level FlightAware
09:55AM 35.6760 1.6020 192° South 490 564 34,000  Level FlightAware
09:56AM 35.6000 1.5820 192° South 490 564 34,000  Level FlightAware
09:56AM 35.5060 1.5570 192° South 490 564 34,000  Level FlightAware
09:57AM 35.4310 1.5380 192° South 490 564 34,000  Level FlightAware
09:58AM 35.3550 1.5180 192° South 490 564 34,000  Level FlightAware
09:58AM 35.2800 1.4980 192° South 490 564 34,000  Level FlightAware
09:59AM 35.2040 1.4790 192° South 490 564 34,000  Level FlightAware
10:00AM 35.1100 1.4540 192° South 490 564 34,000  Level FlightAware
10:01AM 35.0350 1.4350 192° South 490 564 34,000  Level FlightAware
10:01AM 34.8120 1.3700 193° South 34,000  Level FlightAware
10:04AM 34.5486 1.3101 191° South  Level Estimated
10:05AM 34.4251 1.2822 191° South  Level Estimated
10:06AM 34.3016 1.2543 191° South  Level Estimated
10:07AM 34.1780 1.2265 191° South  Level Estimated
10:08AM 34.0545 1.1988 191° South  Level Estimated
10:09AM 33.9310 1.1712 191° South  Level Estimated
10:10AM 33.8075 1.1436 190° South  Level Estimated
10:11AM 33.6839 1.1162 190° South  Level Estimated
10:12AM 33.5604 1.0888 190° South  Level Estimated
10:13AM 33.4368 1.0615 190° South  Level Estimated
10:14AM 33.3133 1.0343 190° South  Level Estimated
10:15AM 33.1897 1.0071 190° South  Level Estimated
10:16AM 33.0662 0.9800 190° South  Level Estimated
10:17AM 32.9426 0.9530 190° South  Level Estimated
10:18AM 32.8190 0.9261 190° South  Level Estimated
10:19AM 32.6954 0.8993 190° South  Level Estimated
10:20AM 32.5718 0.8725 190° South  Level Estimated
10:21AM 32.4482 0.8458 190° South  Level Estimated
10:22AM 32.3246 0.8192 190° South  Level Estimated
10:23AM 32.2010 0.7926 190° South  Level Estimated
10:24AM 32.0774 0.7661 190° South  Level Estimated
10:25AM 31.9538 0.7397 190° South  Level Estimated
10:26AM 31.8302 0.7134 190° South  Level Estimated
10:27AM 31.7066 0.6871 190° South  Level Estimated
10:28AM 31.5829 0.6609 190° South  Level Estimated
10:29AM 31.4593 0.6348 190° South  Level Estimated
10:30AM 31.3356 0.6087 190° South  Level Estimated
10:31AM 31.2120 0.5827 190° South  Level Estimated
10:32AM 31.0883 0.5568 190° South  Level Estimated
10:33AM 30.9647 0.5309 190° South  Level Estimated
10:34AM 30.8410 0.5052 190° South  Level Estimated
10:35AM 30.7174 0.4794 190° South  Level Estimated
10:36AM 30.5937 0.4538 190° South  Level Estimated
10:37AM 30.4700 0.4282 190° South  Level Estimated
10:38AM 30.3463 0.4026 190° South  Level Estimated
10:39AM 30.2226 0.3772 190° South  Level Estimated
10:40AM 30.0989 0.3518 190° South  Level Estimated
10:41AM 29.9752 0.3264 190° South  Level Estimated
10:42AM 29.8515 0.3012 190° South  Level Estimated
10:43AM 29.7278 0.2760 190° South  Level Estimated
10:44AM 29.6041 0.2508 190° South  Level Estimated
10:45AM 29.4804 0.2257 190° South  Level Estimated
10:46AM 29.3567 0.2007 190° South  Level Estimated
10:47AM 29.2329 0.1757 190° South  Level Estimated
10:48AM 29.1092 0.1508 190° South  Level Estimated
10:49AM 28.9855 0.1260 190° South  Level Estimated
10:50AM 28.8617 0.1012 190° South  Level Estimated
10:51AM 28.7380 0.0764 190° South  Level Estimated
10:52AM 28.6142 0.0518 190° South  Level Estimated
10:53AM 28.4905 0.0272 190° South  Level Estimated
10:54AM 28.3667 0.0026 190° South  Level Estimated
10:55AM 28.2429 -0.0219 190° South  Level Estimated
10:56AM 28.1192 -0.0463 190° South  Level Estimated
10:57AM 27.9954 -0.0707 190° South  Level Estimated
10:58AM 27.8716 -0.0950 190° South  Level Estimated
10:59AM 27.7478 -0.1193 190° South  Level Estimated
11:00AM 27.6241 -0.1435 190° South  Level Estimated
11:01AM 27.5003 -0.1677 190° South  Level Estimated
11:02AM 27.3765 -0.1918 190° South  Level Estimated
11:03AM 27.2527 -0.2158 190° South  Level Estimated
11:04AM 27.1289 -0.2398 190° South  Level Estimated
11:05AM 27.0051 -0.2638 190° South  Level Estimated
11:06AM 26.8813 -0.2877 190° South  Level Estimated
11:07AM 26.7574 -0.3115 190° South  Level Estimated
11:08AM 26.6336 -0.3353 190° South  Level Estimated
11:09AM 26.5098 -0.3591 190° South  Level Estimated
11:10AM 26.3860 -0.3828 190° South  Level Estimated
11:11AM 26.2621 -0.4064 190° South  Level Estimated
11:12AM 26.1383 -0.4300 190° South  Level Estimated
11:13AM 26.0145 -0.4535 190° South  Level Estimated
11:14AM 25.8906 -0.4770 190° South  Level Estimated
11:15AM 25.7668 -0.5005 190° South  Level Estimated
11:16AM 25.6429 -0.5238 190° South  Level Estimated
11:17AM 25.5191 -0.5472 190° South  Level Estimated
11:18AM 25.3952 -0.5705 190° South  Level Estimated
11:19AM 25.2714 -0.5937 190° South  Level Estimated
11:20AM 25.1475 -0.6169 190° South  Level Estimated
11:21AM 25.0236 -0.6401 190° South  Level Estimated
11:22AM 24.8998 -0.6632 190° South  Level Estimated
11:23AM 24.7759 -0.6862 190° South  Level Estimated
11:24AM 24.6520 -0.7092 190° South  Level Estimated
11:25AM 24.5281 -0.7322 190° South  Level Estimated
11:26AM 24.4042 -0.7551 190° South  Level Estimated
11:27AM 24.2803 -0.7780 190° South  Level Estimated
11:28AM 24.1565 -0.8008 190° South  Level Estimated
11:29AM 24.0326 -0.8236 190° South  Level Estimated
11:30AM 23.9087 -0.8463 190° South  Level Estimated
11:31AM 23.7848 -0.8690 190° South  Level Estimated
11:32AM 23.6609 -0.8917 190° South  Level Estimated
11:33AM 23.5369 -0.9143 189° South  Level Estimated
11:34AM 23.4130 -0.9369 189° South  Level Estimated
11:35AM 23.2891 -0.9594 189° South  Level Estimated
11:36AM 23.1652 -0.9819 189° South  Level Estimated
11:37AM 23.0413 -1.0043 189° South  Level Estimated
11:38AM 22.9174 -1.0267 189° South  Level Estimated
11:39AM 22.7934 -1.0491 189° South  Level Estimated
11:40AM 22.6695 -1.0714 189° South  Level Estimated
11:41AM 22.5456 -1.0937 189° South  Level Estimated
11:42AM 22.4216 -1.1159 189° South  Level Estimated
11:43AM 22.2977 -1.1381 189° South  Level Estimated
11:44AM 22.1737 -1.1603 189° South  Level Estimated
11:45AM 22.0498 -1.1824 189° South  Level Estimated
11:46AM 21.9258 -1.2045 189° South  Level Estimated
11:47AM 21.8019 -1.2265 189° South  Level Estimated
11:48AM 21.6779 -1.2486 189° South  Level Estimated
11:49AM 21.5540 -1.2705 189° South  Level Estimated
11:50AM 21.4300 -1.2925 189° South  Level Estimated
11:51AM 21.3060 -1.3144 189° South  Level Estimated
11:52AM 21.1821 -1.3362 189° South  Level Estimated
11:53AM 21.0581 -1.3580 189° South  Level Estimated
11:54AM 20.9341 -1.3798 189° South  Level Estimated
11:55AM 20.8102 -1.4016 189° South  Level Estimated
11:56AM 20.6862 -1.4233 189° South  Level Estimated
11:57AM 20.5622 -1.4450 189° South  Level Estimated
11:58AM 20.4382 -1.4666 189° South  Level Estimated
11:59AM 20.3142 -1.4882 189° South  Level Estimated
12:00PM 20.1903 -1.5098 189° South  Level Estimated
12:01PM 20.0663 -1.5313 189° South  Level Estimated
12:02PM 19.9423 -1.5528 189° South  Level Estimated
12:03PM 19.8183 -1.5743 189° South  Level Estimated
12:04PM 19.6943 -1.5957 189° South  Level Estimated
12:05PM 19.5703 -1.6171 189° South  Level Estimated
12:06PM 19.4463 -1.6385 189° South  Level Estimated
12:07PM 19.3223 -1.6598 189° South  Level Estimated
12:08PM 19.1982 -1.6811 189° South  Level Estimated
12:09PM 19.0742 -1.7024 189° South  Level Estimated
12:10PM 18.9502 -1.7237 189° South  Level Estimated
12:11PM 18.8262 -1.7449 189° South  Level Estimated
12:12PM 18.7022 -1.7660 189° South  Level Estimated
12:13PM 18.5782 -1.7872 189° South  Level Estimated
12:14PM 18.4541 -1.8083 189° South  Level Estimated
12:15PM 18.3301 -1.8294 189° South  Level Estimated
12:16PM 18.2061 -1.8505 189° South  Level Estimated
12:17PM 18.0821 -1.8715 189° South  Level Estimated
12:18PM 17.9580 -1.8925 189° South  Level Estimated
12:19PM 17.8340 -1.9135 189° South  Level Estimated
12:20PM 17.7100 -1.9344 189° South  Level Estimated
12:21PM 17.5859 -1.9553 189° South  Level Estimated
12:22PM 17.4619 -1.9762 189° South  Level Estimated
12:23PM 17.3378 -1.9971 189° South  Level Estimated
12:24PM 17.2138 -2.0179 189° South  Level Estimated
12:25PM 17.0897 -2.0387 189° South  Level Estimated
12:26PM 16.9657 -2.0594 189° South  Level Estimated
12:27PM 16.8416 -2.0802 189° South  Level Estimated
12:28PM 16.7176 -2.1009 189° South  Level Estimated
12:29PM 16.5935 -2.1216 189° South  Level Estimated
12:30PM 16.4695 -2.1422 189° South  Level Estimated
12:31PM 16.3454 -2.1629 189° South  Level Estimated
12:32PM 16.2213 -2.1835 189° South  Level Estimated
12:33PM 16.0973 -2.2041 189° South  Level Estimated
12:34PM 15.9732 -2.2246 189° South  Level Estimated
12:35PM 15.8491 -2.2452 189° South  Level Estimated
12:36PM 15.7251 -2.2657 189° South  Level Estimated
12:37PM 15.6010 -2.2861 189° South  Level Estimated
12:38PM 15.4769 -2.3066 189° South  Level Estimated
12:39PM 15.3529 -2.3270 189° South  Level Estimated
12:40PM 15.2288 -2.3474 189° South  Level Estimated
12:41PM 15.1047 -2.3678 189° South  Level Estimated
12:42PM 14.9806 -2.3882 189° South  Level Estimated
12:43PM 14.8565 -2.4085 189° South  Level Estimated
12:44PM 14.7325 -2.4288 189° South  Level Estimated
12:45PM 14.6084 -2.4491 189° South  Level Estimated
12:46PM 14.4843 -2.4694 189° South  Level Estimated
12:47PM 14.3602 -2.4896 189° South  Level Estimated
12:48PM 14.2361 -2.5099 189° South  Level Estimated
12:49PM 14.1120 -2.5301 189° South  Level Estimated
12:50PM 13.9879 -2.5502 189° South  Level Estimated
12:51PM 13.8638 -2.5704 189° South  Level Estimated
12:52PM 13.7397 -2.5905 189° South  Level Estimated
12:53PM 13.6156 -2.6106 189° South  Level Estimated
12:54PM 13.4915 -2.6307 189° South  Level Estimated
12:55PM 13.3674 -2.6508 189° South  Level Estimated
12:56PM 13.2433 -2.6708 189° South  Level Estimated
12:57PM 13.1192 -2.6909 189° South  Level Estimated
12:58PM 12.9951 -2.7109 189° South  Level Estimated
12:59PM 12.8710 -2.7309 189° South  Level Estimated
01:00PM 12.7469 -2.7508 189° South  Level Estimated
01:01PM 12.6228 -2.7708 189° South  Level Estimated
01:02PM 12.4986 -2.7907 189° South  Level Estimated
01:03PM 12.3745 -2.8106 189° South  Level Estimated
01:04PM 12.2504 -2.8305 189° South  Level Estimated
01:05PM 12.1263 -2.8504 189° South  Level Estimated
01:06PM 12.0022 -2.8702 189° South  Level Estimated
01:07PM 11.8780 -2.8901 189° South  Level Estimated
01:08PM 11.7539 -2.9099 189° South  Level Estimated
01:09PM 11.6298 -2.9297 189° South  Level Estimated
01:10PM 11.5057 -2.9495 189° South  Level Estimated
01:11PM 11.3815 -2.9693 189° South  Level Estimated
01:12PM 11.2574 -2.9890 189° South  Level Estimated
01:13PM 11.1333 -3.0087 189° South  Level Estimated
01:14PM 11.0092 -3.0285 189° South  Level Estimated
01:15PM 10.8850 -3.0482 189° South  Level Estimated
01:16PM 10.7609 -3.0678 189° South  Level Estimated
01:17PM 10.6368 -3.0875 189° South  Level Estimated
01:18PM 10.5126 -3.1072 189° South  Level Estimated
01:19PM 10.3885 -3.1268 189° South  Level Estimated
01:20PM 10.2643 -3.1464 189° South  Level Estimated
01:21PM 10.1402 -3.1660 189° South  Level Estimated
01:22PM 10.0161 -3.1856 189° South  Level Estimated
01:23PM 9.8919 -3.2052 189° South  Level Estimated
01:24PM 9.7678 -3.2247 189° South  Level Estimated
01:25PM 9.6437 -3.2443 189° South  Level Estimated
01:26PM 9.5195 -3.2638 189° South  Level Estimated
01:27PM 9.3954 -3.2833 189° South  Level Estimated
01:28PM 9.2712 -3.3028 189° South  Level Estimated
01:29PM 9.1471 -3.3223 189° South  Level Estimated
01:30PM 9.0229 -3.3418 189° South  Level Estimated
01:31PM 8.8988 -3.3612 189° South  Level Estimated
01:32PM 8.7746 -3.3807 189° South  Level Estimated
01:33PM 8.6505 -3.4001 189° South  Level Estimated
01:34PM 8.5263 -3.4195 189° South  Level Estimated
01:35PM 8.4022 -3.4390 189° South  Level Estimated
01:36PM 8.2780 -3.4583 189° South  Level Estimated
01:37PM 8.1538 -3.4777 189° South  Level Estimated
01:38PM 8.0297 -3.4971 189° South  Level Estimated
01:39PM 7.9055 -3.5165 189° South  Level Estimated
01:40PM 7.7814 -3.5358 189° South  Level Estimated
01:41PM 7.6572 -3.5552 189° South  Level Estimated
01:42PM 7.5331 -3.5745 189° South  Level Estimated
01:43PM 7.4089 -3.5938 189° South  Level Estimated
01:44PM 7.2847 -3.6131 189° South  Level Estimated
01:45PM 7.1606 -3.6324 189° South  Level Estimated
01:46PM 7.0364 -3.6517 189° South  Level Estimated
01:47PM 6.9123 -3.6709 189° South  Level Estimated
01:48PM 6.7881 -3.6902 189° South  Level Estimated
01:49PM 6.6639 -3.7095 189° South  Level Estimated
01:50PM 6.5397 -3.7287 189° South  Level Estimated
01:51PM 6.4163 -3.7478 189° South  Level Estimated
01:52PM 6.2928 -3.7669 189° South  Level Estimated
01:53PM 6.1694 -3.7861 189° South  Level Estimated
01:54PM 6.0459 -3.8052 189° South  Level Estimated
01:55PM 5.9224 -3.8242 189° South  Level Estimated
01:56PM 5.7989 -3.8433 189° South  Level Estimated
01:57PM 5.6755 -3.8624 189° South  Level Estimated